Flight Track Log - Related Links

Times and Time Zones

All times are in EDT time to prevent confusion due to time zone crossing. See the TCF5921 flight status page for this flight to view local times or setup timezone preferences in your user account.


Time Position Orientation Groundspeed Altitude Reporting Facility
EDT Latitude Longitude Course Direction KTS MPH feet Rate Location/Type
Mon 04:20:33 PM 40.7500 -73.8500 246° West 129 148 1,800  Level New York TRACON
Mon 04:21:33 PM 40.7333 -73.8000 114° Southeast 226 260 4,100 2,600 Climbing New York TRACON
Mon 04:22:33 PM 40.8000 -73.7667 21° North 236 272 7,000 2,400 Climbing New York TRACON
Mon 04:23:33 PM 40.8167 -73.8500 285° West 261 300 8,900 2,500 Climbing New York TRACON
Mon 04:24:00 PM 40.6079 -74.3469 242° Southwest  Level FlightAware Approximate
Mon 04:24:33 PM 40.8167 -73.9500 270° West 275 316 12,000  Level New York TRACON
Mon 04:25:00 PM 40.5744 -74.4435 246° West  Level FlightAware Approximate
Mon 04:25:33 PM 40.8167 -74.0667 270° West 314 361 12,700  Level New York TRACON
Mon 04:26:33 PM 40.7833 -74.1833 249° West 331 381 14,800 942 Climbing New York TRACON
Mon 04:28:25 PM 40.6903 -74.3672 236° Southwest 345 397 15,400 737 Climbing New York Center
Mon 04:29:24 PM 40.6497 -74.4636 241° Southwest 345 397 16,900 900 Climbing New York Center
Mon 04:30:25 PM 40.5981 -74.5811 240° Southwest 345 397 17,200 1,180 Climbing New York Center
Mon 04:31:26 PM 40.5511 -74.6794 238° Southwest 345 397 19,300 2,250 Climbing New York Center
Mon 04:32:25 PM 40.5014 -74.7942 240° Southwest 351 404 21,700 1,350 Climbing New York Center
Mon 04:33:26 PM 40.4450 -74.9189 239° Southwest 371 427 22,000 148 Climbing New York Center
Mon 04:34:27 PM 40.3717 -75.0453 233° Southwest 413 475 22,000  Level New York Center
Mon 04:35:24 PM 40.2881 -75.1625 227° Southwest 435 501 22,000  Level New York Center
Mon 04:36:26 PM 40.2047 -75.2769 226° Southwest 440 506 22,000  Level New York Center
Mon 04:37:26 PM 40.1231 -75.3939 228° Southwest 445 512 22,000  Level New York Center
Mon 04:38:26 PM 40.0392 -75.5075 226° Southwest 445 512 22,000  Level New York Center
Mon 04:39:24 PM 39.9553 -75.6236 227° Southwest 445 512 22,000  Level New York Center
Mon 04:40:25 PM 39.8792 -75.7508 232° Southwest 445 512 22,000  Level New York Center
Mon 04:41:26 PM 39.8111 -75.8758 235° Southwest 445 512 22,000 -1,109 Level New York Center
Mon 04:42:24 PM 39.7242 -76.0100 230° Southwest 445 512 19,800 -2,269 Descending New York Center
Mon 04:43:25 PM 39.6461 -76.1200 227° Southwest 416 479 17,500 -1,966 Descending New York Center
Mon 04:45:18 PM 39.5333 -76.3000 231° Southwest 334 384 14,100 -1,769 Descending Potomac TRACON
Mon 04:46:18 PM 39.4667 -76.3833 224° Southwest 314 361 12,400 -1,050 Descending Potomac TRACON
Mon 04:47:18 PM 39.4000 -76.4667 224° Southwest 315 362 12,000 -450 Descending Potomac TRACON
Mon 04:48:18 PM 39.3333 -76.5333 218° Southwest 304 350 11,500 -750 Descending Potomac TRACON
Mon 04:49:18 PM 39.2667 -76.5833 210° Southwest 293 337 10,500 -750 Descending Potomac TRACON
Mon 04:50:18 PM 39.2000 -76.6333 210° Southwest 284 327 10,000 -250 Descending Potomac TRACON
Mon 04:51:18 PM 39.1333 -76.7000 218° Southwest 286 329 10,000 -198 Level Potomac TRACON
Mon 04:52:19 PM 39.0833 -76.7667 226° Southwest 275 316 9,600 -1,240 Descending Potomac TRACON
Mon 04:53:19 PM 39.0167 -76.8333 218° Southwest 281 323 7,500 -1,785 Descending Potomac TRACON
Mon 04:54:20 PM 38.9667 -76.9167 232° Southwest 276 318 6,000 -992 Descending Potomac TRACON
Mon 04:55:20 PM 38.9667 -77.0000 270° West 226 260 5,500 -600 Descending Potomac TRACON
Mon 04:56:20 PM 39.0000 -77.0667 303° West 216 249 4,800 -750 Descending Potomac TRACON
Mon 04:57:20 PM 39.0500 -77.1167 322° Northwest 203 234 4,000 -400 Descending Potomac TRACON
Mon 04:58:20 PM 39.0833 -77.1667 311° West 208 239 4,000 -248 Level Potomac TRACON
Mon 04:59:21 PM 39.0833 -77.2333 270° West 176 203 3,500 -496 Descending Potomac TRACON
Mon 05:00:21 PM 39.0333 -77.2333 180° South 177 204 3,000 -233 Descending Potomac TRACON
Mon 05:02:21 PM 38.9667 -77.1500 136° Southeast 173 199 2,800 -367 Descending Potomac TRACON
Mon 05:03:21 PM 38.9333 -77.1167 142° Southeast 169 194 1,900 -850 Descending Potomac TRACON
Mon 05:04:21 PM 38.9000 -77.0667 131° Southeast 145 167 1,100 -750 Descending Potomac TRACON
Mon 05:05:21 PM 38.8833 -77.0500 142° Southeast 119 137 400 -700 Descending Potomac TRACON

Login

Don't have an account? Register now (free) for customized features, flight alerts, and more!